createdAt,value
2018-02-06T00:13:44.556Z,11.73
2018-02-06T00:16:31.853Z,11.70
2018-02-06T00:35:40.473Z,10.27
2018-02-06T00:38:28.050Z,11.23
2018-02-06T00:41:16.662Z,11.73
2018-02-06T00:44:03.942Z,11.50
2018-02-06T00:46:51.925Z,10.50
2018-02-06T00:49:39.208Z,10.83
2018-02-06T00:52:26.762Z,10.20
2018-02-06T01:18:04.313Z,11.10
2018-02-06T01:20:51.529Z,10.40
2018-02-06T01:39:59.291Z,9.23
2018-02-06T01:42:46.913Z,11.70
2018-02-06T02:08:25.249Z,8.20
2018-02-06T02:11:12.573Z,9.93
2018-02-06T02:13:59.904Z,9.50
2018-02-06T02:16:47.355Z,9.00
2018-02-06T02:19:34.706Z,8.80
2018-02-06T02:22:22.460Z,9.80
2018-02-06T02:25:10.123Z,8.53
2018-02-06T02:27:58.164Z,9.47
2018-02-06T02:30:45.764Z,9.25
2018-02-06T02:33:33.714Z,9.30
2018-02-06T02:36:21.916Z,9.13
2018-02-06T02:39:10.945Z,8.33
2018-02-06T04:39:10.013Z,9.65
2018-02-06T04:41:57.891Z,9.17
2018-02-06T04:44:45.288Z,8.60
2018-02-06T04:47:33.719Z,9.10
2018-02-06T04:50:21.182Z,9.03
2018-02-06T04:53:08.392Z,9.00
2018-02-06T04:55:55.635Z,8.93
2018-02-06T04:58:42.879Z,9.70
2018-02-06T05:01:30.162Z,9.10
2018-02-06T05:04:18.242Z,8.97
2018-02-06T05:07:05.534Z,9.47
2018-02-06T05:09:53.595Z,8.90
2018-02-06T05:12:41.135Z,9.60
2018-02-06T05:15:28.483Z,8.60
2018-02-06T05:18:15.900Z,8.20
2018-02-06T05:21:03.334Z,9.60
2018-02-06T05:23:50.880Z,8.93
2018-02-06T05:26:38.432Z,8.93
2018-02-06T05:29:25.886Z,10.13
2018-02-06T05:32:13.192Z,9.70
2018-02-06T05:35:00.579Z,9.02
2018-02-06T05:37:48.714Z,10.23
2018-02-06T05:40:35.854Z,9.37
2018-02-06T05:43:23.968Z,8.90
2018-02-06T05:46:11.683Z,9.10
2018-02-06T05:48:58.864Z,8.70
2018-02-06T05:51:46.816Z,8.93
2018-02-06T05:54:34.690Z,10.10
2018-02-06T05:57:22.040Z,9.33
2018-02-06T06:00:09.647Z,9.23
2018-02-06T06:02:58.080Z,9.23
2018-02-06T06:05:45.370Z,9.53
2018-02-06T06:08:32.733Z,9.60
2018-02-06T06:11:19.894Z,9.00
2018-02-06T06:14:07.202Z,8.80
2018-02-06T06:16:55.338Z,8.53
2018-02-06T06:19:42.627Z,9.03
2018-02-06T06:22:30.259Z,10.17
2018-02-06T06:25:18.058Z,9.10
2018-02-06T06:28:05.299Z,9.57
2018-02-06T06:30:52.786Z,10.25
2018-02-06T06:33:40.124Z,9.70
2018-02-06T06:36:27.356Z,8.03
2018-02-06T06:39:14.865Z,10.30
2018-02-06T06:42:02.140Z,9.93
2018-02-06T06:44:49.334Z,8.77
2018-02-06T06:47:37.045Z,9.80
2018-02-06T06:50:25.150Z,9.23
2018-02-06T06:53:12.374Z,10.50
2018-02-06T06:56:00.652Z,9.90
2018-02-06T06:58:47.940Z,8.67
2018-02-06T07:01:36.077Z,9.40
2018-02-06T07:04:23.461Z,9.50
2018-02-06T07:07:11.694Z,8.65
2018-02-06T07:09:58.986Z,9.23
2018-02-06T07:12:47.706Z,9.05
2018-02-06T07:38:25.262Z,9.23
2018-02-06T07:41:12.480Z,9.13
2018-02-06T07:43:59.899Z,8.70
2018-02-06T07:46:47.243Z,8.90
2018-02-06T07:49:34.966Z,9.60
2018-02-06T07:52:22.167Z,9.50
2018-02-06T07:55:09.444Z,8.80
2018-02-06T07:57:57.195Z,9.85
2018-02-06T08:00:44.609Z,8.23
2018-02-06T08:03:32.553Z,8.87
2018-02-06T08:06:21.126Z,9.93
2018-02-06T08:09:09.475Z,8.73
2018-02-06T08:11:57.199Z,8.77
2018-02-06T08:14:44.490Z,9.40
2018-02-06T08:17:32.710Z,9.83
2018-02-06T08:43:10.034Z,8.73
2018-02-06T08:45:57.934Z,8.07
2018-02-06T08:48:45.114Z,8.83
2018-02-06T08:51:32.841Z,9.37
2018-02-06T08:54:20.222Z,9.50
2018-02-06T08:57:07.327Z,9.47
2018-02-06T08:59:54.965Z,9.83
2018-02-06T09:02:42.899Z,9.33
2018-02-06T09:05:30.129Z,10.23
2018-02-06T09:08:17.573Z,9.90
2018-02-06T09:11:05.039Z,10.40
2018-02-06T09:13:52.640Z,11.70
2018-02-06T09:16:39.975Z,9.60
2018-02-06T09:19:27.412Z,11.10
2018-02-06T09:22:14.808Z,10.77
2018-02-06T09:25:02.087Z,10.70
2018-02-06T09:27:50.178Z,11.00
2018-02-06T09:30:37.390Z,11.27
2018-02-06T09:33:24.797Z,11.37
2018-02-06T09:36:12.067Z,11.57
2018-02-06T09:38:59.275Z,12.03
2018-02-06T09:41:47.014Z,11.80
2018-02-06T10:00:54.755Z,11.03
2018-02-06T10:03:41.859Z,10.80
2018-02-06T10:06:29.297Z,11.07
2018-02-06T10:09:17.587Z,10.93
2018-02-06T10:12:04.980Z,10.80
2018-02-06T10:14:53.354Z,10.57
2018-02-06T10:17:40.490Z,12.00
2018-02-06T10:20:27.755Z,11.30
2018-02-06T10:23:15.097Z,12.83
2018-02-06T10:26:02.287Z,13.47
2018-02-06T10:28:49.589Z,12.30
2018-02-06T10:31:36.905Z,11.80
2018-02-06T10:34:25.263Z,12.57
2018-02-06T10:37:12.626Z,11.70
2018-02-06T10:39:59.918Z,12.70
2018-02-06T10:42:47.127Z,13.30
2018-02-06T10:45:34.578Z,12.27
2018-02-06T10:48:22.339Z,12.35
2018-02-06T10:51:09.611Z,12.43
2018-02-06T10:53:57.008Z,12.17
2018-02-06T11:13:04.527Z,12.40
2018-02-06T11:15:52.895Z,14.35
2018-02-06T11:18:40.192Z,14.03
2018-02-06T11:21:27.793Z,12.80
2018-02-06T11:24:15.213Z,14.37
2018-02-06T11:27:02.726Z,15.60
2018-02-06T11:29:50.140Z,15.40
2018-02-06T11:32:37.755Z,15.10
2018-02-06T11:35:25.928Z,15.30
2018-02-06T11:38:13.215Z,14.60
2018-02-06T11:41:01.303Z,15.00
2018-02-06T11:43:48.539Z,15.43
2018-02-06T11:46:35.936Z,15.80
2018-02-06T11:49:23.198Z,15.73
2018-02-06T11:52:10.492Z,15.90
2018-02-06T11:54:57.996Z,14.90
2018-02-06T11:57:45.521Z,15.23
2018-02-06T12:00:33.158Z,14.97
2018-02-06T12:03:21.151Z,17.03
2018-02-06T12:06:08.259Z,16.40
2018-02-06T12:08:55.756Z,17.00
2018-02-06T12:11:43.056Z,15.57
2018-02-06T12:14:30.543Z,16.00
2018-02-06T12:17:17.767Z,14.77
2018-02-06T12:20:05.064Z,15.13
2018-02-06T12:22:52.259Z,14.20
2018-02-06T12:25:39.795Z,13.63
2018-02-06T12:28:27.272Z,14.03
2018-02-06T12:31:14.678Z,14.70
2018-02-06T12:34:01.870Z,13.53
2018-02-06T12:36:49.964Z,13.63
2018-02-06T12:39:36.999Z,13.87
2018-02-06T12:42:25.243Z,12.60
2018-02-06T12:45:12.453Z,12.90
2018-02-06T12:48:00.030Z,14.40
2018-02-06T12:50:48.418Z,14.15
2018-02-06T12:53:35.769Z,12.60
2018-02-06T12:56:22.893Z,13.70
2018-02-06T12:59:10.271Z,14.67
2018-02-06T13:01:58.341Z,14.70
2018-02-06T13:04:45.665Z,15.33
2018-02-06T13:07:32.845Z,15.50
2018-02-06T13:10:20.121Z,15.47
2018-02-06T13:13:07.204Z,14.27
2018-02-06T13:15:55.502Z,15.30
2018-02-06T13:18:42.790Z,15.33
2018-02-06T13:21:29.978Z,15.93
2018-02-06T13:24:17.111Z,14.80
2018-02-06T13:27:05.054Z,15.43
2018-02-06T13:29:52.306Z,15.80
2018-02-06T13:32:39.581Z,17.90
2018-02-06T13:35:27.658Z,17.10
2018-02-06T13:38:15.331Z,16.87
2018-02-06T13:41:03.269Z,15.80
2018-02-06T13:43:50.451Z,16.53
2018-02-06T13:46:37.691Z,17.20
2018-02-06T13:49:25.078Z,16.90
2018-02-06T13:52:13.082Z,15.70
2018-02-06T13:55:00.341Z,18.83
2018-02-06T13:57:47.766Z,17.13
2018-02-06T14:00:35.879Z,17.03
2018-02-06T14:03:23.055Z,19.30
2018-02-06T14:06:10.408Z,17.03
2018-02-06T14:08:57.522Z,16.27
2018-02-06T14:11:44.808Z,15.67
2018-02-06T14:14:32.941Z,15.20
2018-02-06T14:17:21.248Z,16.10
2018-02-06T14:20:08.581Z,16.37
2018-02-06T14:22:55.863Z,18.27
2018-02-06T14:25:43.000Z,20.07
2018-02-06T14:28:30.433Z,18.00
2018-02-06T14:31:17.793Z,18.50
2018-02-06T14:34:05.292Z,18.07
2018-02-06T14:36:54.087Z,18.10
2018-02-06T14:39:41.423Z,19.30
2018-02-06T14:42:28.560Z,16.77
2018-02-06T14:45:16.351Z,16.63
2018-02-06T14:48:03.690Z,17.23
2018-02-06T14:50:50.946Z,17.60
2018-02-06T14:53:39.099Z,14.97
2018-02-06T14:56:26.591Z,13.20
2018-02-06T14:59:13.874Z,15.53
2018-02-06T15:02:01.122Z,13.90
2018-02-06T15:04:49.691Z,13.57
2018-02-06T15:07:37.052Z,14.83
2018-02-06T15:10:25.033Z,13.80
2018-02-06T15:13:13.135Z,14.25
2018-02-06T15:16:00.408Z,15.27
2018-02-06T15:18:48.003Z,15.03
2018-02-06T15:21:35.140Z,15.83
2018-02-06T15:24:23.402Z,16.00
2018-02-06T15:27:10.787Z,14.07
2018-02-06T15:29:58.370Z,14.18
2018-02-06T15:32:46.063Z,14.70
2018-02-06T15:35:33.306Z,14.70
2018-02-06T15:38:21.886Z,15.70
2018-02-06T15:57:30.408Z,17.17
2018-02-06T16:00:17.956Z,15.18
2018-02-06T16:03:05.218Z,16.07
2018-02-06T16:05:52.465Z,17.00
2018-02-06T16:08:41.553Z,16.83
2018-02-06T16:11:29.107Z,16.85
2018-02-06T16:14:16.437Z,17.03
2018-02-06T16:17:03.814Z,17.23
2018-02-06T16:19:51.268Z,17.80
2018-02-06T16:22:38.841Z,19.58
2018-02-06T16:25:26.845Z,18.20
2018-02-06T16:28:14.089Z,18.70
2018-02-06T16:31:01.450Z,19.57
2018-02-06T16:33:49.714Z,19.27
2018-02-06T16:36:37.332Z,20.05
2018-02-06T16:39:24.705Z,21.40
2018-02-06T16:42:12.279Z,19.90
2018-02-06T16:44:59.590Z,21.23
2018-02-06T16:47:47.972Z,20.70
2018-02-06T16:50:35.302Z,21.27
2018-02-06T16:53:22.599Z,22.00
2018-02-06T16:56:09.790Z,20.27
2018-02-06T16:58:57.068Z,21.93
2018-02-06T17:01:44.153Z,22.57
2018-02-06T17:04:31.453Z,23.30
2018-02-06T17:07:18.800Z,20.80
2018-02-06T17:10:06.218Z,22.10
2018-02-06T17:12:53.494Z,22.50
2018-02-06T17:15:40.848Z,24.33
2018-02-06T17:18:29.051Z,22.80
2018-02-06T17:21:16.542Z,24.47
2018-02-06T17:24:03.871Z,25.73
2018-02-06T17:26:52.110Z,23.80
2018-02-06T17:29:39.316Z,23.80
2018-02-06T17:32:27.367Z,25.03
2018-02-06T17:58:04.797Z,21.90
2018-02-06T18:00:52.772Z,20.10
2018-02-06T18:03:40.057Z,21.43
2018-02-06T18:06:27.542Z,21.77
2018-02-06T18:25:36.017Z,20.40
2018-02-06T18:28:24.501Z,21.27
2018-02-06T18:31:12.790Z,20.23
2018-02-06T18:34:00.743Z,19.87
2018-02-06T18:36:56.169Z,20.40
2018-02-06T18:39:43.710Z,19.00
2018-02-06T18:42:32.022Z,18.00
2018-02-06T18:45:19.301Z,20.30
2018-02-06T18:48:07.496Z,19.40
2018-02-06T19:13:44.756Z,14.87
2018-02-06T19:16:32.046Z,15.63
2018-02-06T19:19:19.437Z,14.97
2018-02-06T19:22:06.984Z,13.77
2018-02-06T19:24:54.657Z,16.10
2018-02-06T19:27:42.610Z,13.07
2018-02-06T19:30:30.716Z,14.33
2018-02-06T19:33:18.057Z,14.10
2018-02-06T19:36:05.358Z,13.83
2018-02-06T19:38:52.483Z,13.57
2018-02-06T19:41:39.910Z,13.50
2018-02-06T19:44:28.256Z,13.63
2018-02-06T19:47:16.050Z,12.43
2018-02-06T19:50:04.313Z,13.07
2018-02-06T19:52:51.474Z,12.60
2018-02-06T20:11:54.067Z,12.37
2018-02-06T20:14:41.102Z,13.47
2018-02-06T20:17:29.251Z,11.23
2018-02-06T20:20:17.311Z,13.00
2018-02-06T20:23:04.807Z,11.37
2018-02-06T20:25:52.093Z,12.13
2018-02-06T20:44:59.854Z,11.87
2018-02-06T20:47:48.989Z,11.60
2018-02-06T20:50:37.449Z,12.07
2018-02-06T20:53:24.615Z,10.50
2018-02-06T20:56:12.208Z,10.20
2018-02-06T21:21:50.282Z,10.70
2018-02-06T21:24:39.748Z,11.73
2018-02-06T21:27:27.365Z,10.67
2018-02-06T21:30:14.918Z,11.17
2018-02-06T21:33:02.528Z,12.20
2018-02-06T21:35:51.330Z,10.80
2018-02-06T21:38:38.750Z,11.10
2018-02-06T21:41:26.447Z,11.00
2018-02-06T21:44:13.904Z,11.53
2018-02-06T21:47:01.635Z,11.13
2018-02-06T21:49:49.117Z,11.53
2018-02-06T21:52:37.290Z,11.00
2018-02-06T21:55:25.928Z,10.63
2018-02-06T21:58:14.466Z,10.53
2018-02-06T22:01:02.630Z,9.40
2018-02-06T22:03:50.199Z,9.87
2018-02-06T22:06:37.839Z,11.43
2018-02-06T22:09:25.391Z,10.53
2018-02-06T22:12:12.920Z,10.80
2018-02-06T22:15:00.270Z,10.30
2018-02-06T22:17:48.398Z,10.67
2018-02-06T22:20:35.887Z,9.93
2018-02-06T22:23:23.368Z,11.13
2018-02-06T22:26:10.731Z,11.50
2018-02-06T22:28:59.222Z,11.52
2018-02-06T22:31:46.851Z,11.20
2018-02-06T22:34:35.331Z,9.88
2018-02-06T22:37:23.305Z,10.33
2018-02-06T22:40:11.576Z,11.60
2018-02-06T22:42:59.631Z,9.87
2018-02-06T22:45:47.788Z,9.57
2018-02-06T23:11:25.337Z,9.03
2018-02-06T23:14:12.559Z,11.10
2018-02-06T23:16:59.878Z,9.17
2018-02-06T23:19:47.752Z,10.03
2018-02-06T23:22:35.120Z,9.40
2018-02-06T23:25:22.305Z,9.67
2018-02-06T23:28:09.712Z,9.90
2018-02-06T23:30:57.778Z,9.43
2018-02-06T23:33:45.822Z,10.40
2018-02-06T23:36:33.352Z,9.88
2018-02-06T23:39:20.685Z,9.40
2018-02-06T23:42:08.568Z,11.10
2018-02-06T23:44:55.993Z,10.63
2018-02-06T23:47:43.088Z,10.20
2018-02-06T23:50:30.305Z,10.30
2018-02-06T23:53:18.708Z,9.98
2018-02-06T23:56:06.024Z,10.23
2018-02-06T23:58:53.394Z,10.13
